FlightSource - Aviation Photo Database

World Wide Airport Lookup


Search by ICAO
Or
Search by City

FlightSource.ca - Aviation Photo Database - City of Colorado Springs Municipal Airport Information
Airport Identification
Name: City of Colorado Springs Municipal Airport
ICAO: KCOS
IATA: COS
Airport Location
City: Colorado Springs
Region: CO
Country: United States
Continent: North America
Latitude: 38.8058
Longitude: -104.701
Airport Information
Type: Large Airport
Elevation: 6187 Feet ASL
Flight Status: KCOS
More Info: KCOS
Airport Weather    
Metar: KCOS 221454Z 33012KT 10SM FEW150 FEW210 M04/M17 A2998 RMK AO2 SLP207 T10441172 51012 $
TAF:


Advertisement